createdAt,value
2018-12-18T00:00:39.961Z,31.00
2018-12-18T00:03:07.595Z,36.07
2018-12-18T00:05:35.131Z,33.07
2018-12-18T00:08:02.825Z,33.43
2018-12-18T00:10:36.053Z,34.70
2018-12-18T00:13:03.604Z,31.87
2018-12-18T00:15:31.177Z,31.83
2018-12-18T00:17:58.681Z,32.63
2018-12-18T00:20:26.268Z,31.67
2018-12-18T00:22:53.789Z,31.40
2018-12-18T00:25:21.345Z,32.53
2018-12-18T00:27:49.531Z,30.50
2018-12-18T00:30:17.076Z,29.53
2018-12-18T00:32:44.748Z,31.13
2018-12-18T00:35:12.293Z,31.40
2018-12-18T00:37:39.893Z,28.37
2018-12-18T00:40:07.583Z,30.53
2018-12-18T00:42:35.167Z,29.40
2018-12-18T00:45:02.719Z,29.77
2018-12-18T00:47:30.233Z,30.03
2018-12-18T00:49:57.781Z,31.27
2018-12-18T00:52:25.303Z,32.93
2018-12-18T00:54:52.874Z,30.80
2018-12-18T00:57:20.403Z,29.10
2018-12-18T00:59:48.041Z,31.83
2018-12-18T01:02:15.533Z,29.33
2018-12-18T01:04:45.065Z,32.73
2018-12-18T01:07:12.581Z,32.57
2018-12-18T01:09:40.153Z,32.20
2018-12-18T01:12:07.801Z,31.37
2018-12-18T01:14:35.406Z,31.53
2018-12-18T01:17:02.931Z,29.37
2018-12-18T01:19:34.835Z,32.21
2018-12-18T01:22:02.375Z,30.63
2018-12-18T01:24:30.786Z,30.97
2018-12-18T01:26:58.335Z,32.67
2018-12-18T01:29:25.908Z,31.93
2018-12-18T01:31:53.585Z,31.90
2018-12-18T01:34:21.138Z,29.33
2018-12-18T01:36:48.718Z,29.10
2018-12-18T01:39:16.223Z,29.97
2018-12-18T01:41:43.759Z,29.43
2018-12-18T01:44:11.339Z,29.47
2018-12-18T01:46:38.867Z,27.23
2018-12-18T01:49:06.569Z,28.87
2018-12-18T01:51:34.074Z,29.37
2018-12-18T01:54:02.048Z,29.17
2018-12-18T01:56:29.569Z,30.30
2018-12-18T01:58:57.163Z,28.07
2018-12-18T02:01:24.653Z,27.67
2018-12-18T02:03:52.294Z,29.23
2018-12-18T02:06:19.871Z,30.30
2018-12-18T02:08:47.361Z,31.27
2018-12-18T02:11:14.902Z,29.87
2018-12-18T02:13:42.396Z,28.73
2018-12-18T02:16:10.248Z,28.40
2018-12-18T02:18:37.821Z,29.37
2018-12-18T02:21:05.402Z,29.63
2018-12-18T02:23:33.260Z,29.27
2018-12-18T02:26:00.828Z,29.20
2018-12-18T02:28:28.401Z,28.30
2018-12-18T02:30:56.003Z,29.53
2018-12-18T02:33:23.525Z,29.50
2018-12-18T02:35:51.141Z,29.77
2018-12-18T02:38:18.775Z,29.57
2018-12-18T02:40:46.369Z,29.50
2018-12-18T02:43:13.866Z,30.33
2018-12-18T02:45:41.387Z,30.12
2018-12-18T02:48:09.054Z,29.50
2018-12-18T02:50:36.568Z,28.77
2018-12-18T02:53:05.497Z,29.40
2018-12-18T02:55:33.216Z,30.07
2018-12-18T02:58:00.728Z,29.73
2018-12-18T03:00:28.270Z,28.93
2018-12-18T03:02:55.810Z,29.40
2018-12-18T03:05:23.393Z,28.97
2018-12-18T03:07:50.945Z,29.83
2018-12-18T03:10:18.636Z,29.37
2018-12-18T03:12:46.151Z,29.97
2018-12-18T03:15:13.750Z,31.53
2018-12-18T03:17:41.305Z,29.53
2018-12-18T03:20:08.887Z,28.43
2018-12-18T03:22:36.404Z,28.23
2018-12-18T03:25:04.545Z,27.43
2018-12-18T03:27:32.088Z,28.10
2018-12-18T03:29:59.716Z,28.00
2018-12-18T03:32:28.000Z,29.67
2018-12-18T03:34:55.600Z,28.50
2018-12-18T03:37:23.206Z,30.17
2018-12-18T03:39:50.727Z,30.03
2018-12-18T03:42:18.274Z,28.53
2018-12-18T03:44:45.809Z,30.33
2018-12-18T03:47:13.386Z,28.47
2018-12-18T03:49:40.962Z,28.43
2018-12-18T03:52:08.447Z,28.67
2018-12-18T03:54:35.992Z,28.53
2018-12-18T03:57:03.506Z,27.97
2018-12-18T03:59:30.998Z,28.67
2018-12-18T04:01:58.602Z,29.57
2018-12-18T04:04:26.129Z,28.63
2018-12-18T04:06:53.648Z,27.30
2018-12-18T04:09:21.202Z,27.37
2018-12-18T04:11:54.470Z,28.03
2018-12-18T04:14:22.025Z,28.40
2018-12-18T04:16:49.544Z,26.67
2018-12-18T04:19:17.139Z,28.30
2018-12-18T04:21:44.718Z,27.30
2018-12-18T04:24:12.216Z,27.63
2018-12-18T04:26:39.710Z,27.00
2018-12-18T04:29:07.247Z,26.53
2018-12-18T04:31:34.796Z,28.23
2018-12-18T04:34:02.327Z,28.30
2018-12-18T04:36:29.904Z,28.10
2018-12-18T04:38:57.428Z,27.93
2018-12-18T04:41:24.926Z,27.77
2018-12-18T04:43:52.541Z,27.87
2018-12-18T04:46:20.031Z,27.43
2018-12-18T04:48:47.547Z,27.47
2018-12-18T04:51:15.076Z,29.97
2018-12-18T04:53:42.585Z,26.23
2018-12-18T04:56:10.244Z,26.57
2018-12-18T04:58:37.812Z,26.33
2018-12-18T05:01:05.389Z,26.67
2018-12-18T05:03:32.920Z,27.93
2018-12-18T05:06:00.566Z,27.00
2018-12-18T05:08:28.094Z,26.77
2018-12-18T05:10:55.601Z,25.77
2018-12-18T05:13:23.126Z,26.20
2018-12-18T05:15:50.715Z,25.83
2018-12-18T05:18:18.215Z,26.67
2018-12-18T05:20:45.877Z,25.62
2018-12-18T05:23:14.151Z,26.60
2018-12-18T05:25:41.694Z,26.73
2018-12-18T05:28:09.250Z,24.93
2018-12-18T05:30:36.763Z,23.57
2018-12-18T05:33:04.294Z,25.13
2018-12-18T05:35:32.411Z,24.63
2018-12-18T05:37:59.899Z,27.83
2018-12-18T05:40:27.424Z,25.00
2018-12-18T05:42:55.011Z,24.47
2018-12-18T05:45:22.575Z,23.67
2018-12-18T05:47:50.117Z,22.20
2018-12-18T05:50:17.801Z,22.53
2018-12-18T05:52:45.363Z,22.53
2018-12-18T05:55:12.878Z,22.90
2018-12-18T05:57:40.375Z,22.37
2018-12-18T06:00:08.061Z,24.33
2018-12-18T06:02:35.653Z,23.47
2018-12-18T06:05:03.605Z,23.60
2018-12-18T06:07:31.247Z,21.93
2018-12-18T06:09:58.757Z,23.40
2018-12-18T06:12:26.959Z,22.37
2018-12-18T06:14:54.452Z,23.67
2018-12-18T06:17:22.300Z,22.20
2018-12-18T06:19:49.881Z,22.43
2018-12-18T06:22:17.459Z,23.47
2018-12-18T06:24:44.987Z,22.50
2018-12-18T06:27:12.513Z,23.57
2018-12-18T06:29:40.089Z,24.50
2018-12-18T06:32:07.649Z,23.63
2018-12-18T06:34:35.204Z,22.57
2018-12-18T06:37:02.776Z,24.03
2018-12-18T06:39:30.329Z,22.53
2018-12-18T06:41:57.982Z,23.87
2018-12-18T06:44:25.555Z,24.43
2018-12-18T06:46:53.234Z,24.63
2018-12-18T06:49:20.742Z,26.30
2018-12-18T06:51:48.266Z,27.03
2018-12-18T06:54:15.818Z,26.10
2018-12-18T06:56:43.539Z,26.67
2018-12-18T06:59:11.099Z,26.67
2018-12-18T07:01:38.646Z,27.67
2018-12-18T07:04:06.172Z,25.43
2018-12-18T07:06:33.813Z,24.67
2018-12-18T07:09:01.476Z,25.07
2018-12-18T07:11:29.043Z,25.50
2018-12-18T07:13:56.614Z,25.33
2018-12-18T07:16:24.165Z,26.53
2018-12-18T07:18:51.689Z,26.97
2018-12-18T07:21:19.225Z,27.13
2018-12-18T07:23:46.761Z,27.00
2018-12-18T07:26:14.844Z,26.03
2018-12-18T07:28:42.426Z,26.57
2018-12-18T07:31:09.998Z,26.27
2018-12-18T07:33:37.530Z,26.00
2018-12-18T07:36:05.048Z,26.37
2018-12-18T07:38:32.574Z,26.53
2018-12-18T07:41:00.162Z,26.70
2018-12-18T07:43:27.650Z,26.60
2018-12-18T07:45:55.198Z,25.23
2018-12-18T07:48:22.696Z,25.77
2018-12-18T07:50:50.273Z,26.63
2018-12-18T07:53:17.818Z,27.07
2018-12-18T07:55:45.398Z,27.53
2018-12-18T07:58:12.968Z,28.33
2018-12-18T08:00:40.527Z,28.40
2018-12-18T08:03:08.054Z,26.70
2018-12-18T08:05:35.556Z,27.07
2018-12-18T08:08:03.074Z,27.60
2018-12-18T08:10:30.703Z,27.47
2018-12-18T08:12:58.256Z,27.77
2018-12-18T08:15:25.829Z,30.37
2018-12-18T08:17:53.352Z,29.03
2018-12-18T08:20:21.482Z,29.60
2018-12-18T08:22:48.998Z,28.37
2018-12-18T08:25:16.502Z,28.87
2018-12-18T08:27:43.994Z,28.53
2018-12-18T08:30:11.571Z,28.47
2018-12-18T08:32:39.121Z,28.90
2018-12-18T08:35:06.723Z,28.40
2018-12-18T08:37:34.320Z,26.87
2018-12-18T08:40:01.873Z,26.00
2018-12-18T08:42:29.529Z,26.20
2018-12-18T08:44:57.041Z,25.90
2018-12-18T08:47:24.632Z,23.93
2018-12-18T08:49:52.749Z,25.83
2018-12-18T08:52:20.282Z,24.13
2018-12-18T08:54:47.860Z,24.93
2018-12-18T08:57:15.398Z,24.93
2018-12-18T08:59:42.924Z,25.40
2018-12-18T09:02:10.462Z,25.00
2018-12-18T09:04:38.045Z,24.23
2018-12-18T09:07:05.565Z,22.97
2018-12-18T09:09:33.199Z,25.53
2018-12-18T09:12:00.741Z,25.90
2018-12-18T09:14:28.385Z,25.53
2018-12-18T09:17:02.391Z,25.13
2018-12-18T09:19:30.028Z,26.70
2018-12-18T09:21:57.667Z,26.37
2018-12-18T09:24:25.249Z,25.23
2018-12-18T09:26:52.805Z,28.30
2018-12-18T09:29:20.406Z,28.33
2018-12-18T09:31:47.935Z,28.87
2018-12-18T09:34:15.489Z,27.60
2018-12-18T09:36:43.095Z,30.03
2018-12-18T09:39:16.321Z,30.57
2018-12-18T09:41:45.769Z,29.37
2018-12-18T09:44:16.773Z,30.53
2018-12-18T09:46:44.323Z,31.23
2018-12-18T09:49:11.902Z,31.17
2018-12-18T09:51:39.463Z,30.33
2018-12-18T09:54:07.035Z,31.43
2018-12-18T09:56:36.466Z,30.27
2018-12-18T09:59:03.969Z,29.77
2018-12-18T10:01:31.463Z,31.03
2018-12-18T10:03:59.075Z,30.77
2018-12-18T10:06:26.856Z,29.43
2018-12-18T10:08:54.386Z,31.70
2018-12-18T10:11:21.955Z,29.83
2018-12-18T10:13:49.664Z,29.67
2018-12-18T10:16:17.206Z,30.50
2018-12-18T10:18:44.799Z,32.33
2018-12-18T10:21:12.359Z,31.20
2018-12-18T10:23:39.849Z,30.27
2018-12-18T10:26:07.386Z,30.83
2018-12-18T10:28:35.059Z,30.10
2018-12-18T10:31:02.623Z,28.20
2018-12-18T10:33:30.167Z,30.57
2018-12-18T10:36:03.030Z,29.17
2018-12-18T10:38:27.499Z,30.70
2018-12-18T10:40:55.036Z,30.27
2018-12-18T10:43:22.607Z,28.13
2018-12-18T10:45:50.103Z,29.90
2018-12-18T10:48:17.836Z,30.63
2018-12-18T10:50:45.371Z,30.00
2018-12-18T10:53:12.933Z,30.97
2018-12-18T10:55:40.583Z,31.17
2018-12-18T10:58:08.138Z,30.33
2018-12-18T11:00:41.362Z,30.33
2018-12-18T11:03:08.849Z,30.23
2018-12-18T11:05:36.413Z,30.47
2018-12-18T11:08:04.907Z,28.43
2018-12-18T11:10:32.454Z,28.97
2018-12-18T11:13:05.823Z,29.83
2018-12-18T11:15:33.452Z,29.53
2018-12-18T11:18:00.989Z,30.20
2018-12-18T11:20:28.658Z,29.97
2018-12-18T11:22:56.699Z,29.90
2018-12-18T11:25:24.216Z,30.70
2018-12-18T11:27:51.777Z,30.07
2018-12-18T11:30:19.309Z,30.23
2018-12-18T11:32:46.817Z,28.67
2018-12-18T11:35:14.366Z,27.87
2018-12-18T11:37:41.954Z,28.43
2018-12-18T11:40:09.502Z,28.50
2018-12-18T11:42:37.093Z,27.90
2018-12-18T11:45:04.644Z,27.23
2018-12-18T11:47:32.155Z,28.73
2018-12-18T11:49:59.709Z,28.90
2018-12-18T11:52:27.297Z,28.43
2018-12-18T11:54:54.891Z,29.63
2018-12-18T11:57:22.412Z,30.03
2018-12-18T11:59:50.010Z,30.63
2018-12-18T12:02:17.568Z,30.60
2018-12-18T12:04:45.139Z,30.07
2018-12-18T12:07:12.646Z,30.87
2018-12-18T12:09:40.291Z,28.93
2018-12-18T12:12:07.857Z,31.23
2018-12-18T12:14:35.392Z,31.97
2018-12-18T12:17:02.897Z,31.03
2018-12-18T12:19:30.425Z,30.23
2018-12-18T12:21:59.050Z,32.60
2018-12-18T12:24:26.581Z,32.07
2018-12-18T12:26:56.052Z,32.37
2018-12-18T12:29:23.596Z,31.40
2018-12-18T12:31:52.011Z,31.00
2018-12-18T12:34:20.553Z,31.93
2018-12-18T12:36:48.068Z,33.03
2018-12-18T12:39:15.602Z,32.37
2018-12-18T12:41:43.124Z,32.20
2018-12-18T12:44:10.636Z,30.57
2018-12-18T12:46:38.134Z,30.03
2018-12-18T12:49:07.570Z,30.77
2018-12-18T12:51:35.084Z,31.20
2018-12-18T12:54:02.661Z,30.90
2018-12-18T12:56:30.198Z,31.30
2018-12-18T12:58:57.800Z,30.17
2018-12-18T13:01:25.350Z,29.57
2018-12-18T13:03:52.845Z,30.00
2018-12-18T13:06:20.397Z,29.47
2018-12-18T13:08:47.969Z,30.00
2018-12-18T13:11:15.551Z,28.80
2018-12-18T13:13:43.038Z,30.97
2018-12-18T13:16:10.806Z,30.43
2018-12-18T13:18:38.343Z,29.47
2018-12-18T13:21:05.901Z,29.40
2018-12-18T13:23:33.403Z,28.57
2018-12-18T13:26:00.975Z,29.07
2018-12-18T13:28:28.495Z,28.37
2018-12-18T13:30:56.115Z,27.83
2018-12-18T13:33:23.657Z,26.23
2018-12-18T13:35:51.214Z,26.80
2018-12-18T13:38:18.745Z,27.63
2018-12-18T13:40:46.289Z,25.20
2018-12-18T13:43:13.928Z,26.77
2018-12-18T13:45:41.544Z,26.03
2018-12-18T13:48:09.088Z,23.87
2018-12-18T13:50:36.855Z,22.27
2018-12-18T13:53:04.406Z,20.10
2018-12-18T13:55:36.615Z,20.10
2018-12-18T13:58:01.536Z,19.07
2018-12-18T14:00:29.081Z,18.00
2018-12-18T14:02:56.648Z,18.57
2018-12-18T14:05:24.236Z,19.73
2018-12-18T14:07:51.736Z,17.40
2018-12-18T14:10:19.346Z,18.87
2018-12-18T14:12:52.701Z,17.37
2018-12-18T14:15:20.271Z,17.57
2018-12-18T14:17:47.807Z,18.60
2018-12-18T14:20:15.358Z,18.37
2018-12-18T14:22:42.918Z,18.23
2018-12-18T14:25:10.437Z,18.20
2018-12-18T14:27:38.289Z,17.80
2018-12-18T14:30:06.251Z,17.77
2018-12-18T14:32:33.827Z,17.93
2018-12-18T14:35:01.367Z,21.23
2018-12-18T14:37:28.954Z,18.70
2018-12-18T14:39:56.521Z,17.07
2018-12-18T14:42:24.044Z,16.70
2018-12-18T14:44:51.550Z,17.37
2018-12-18T14:47:19.173Z,17.50
2018-12-18T14:49:46.699Z,16.83
2018-12-18T14:52:14.231Z,17.17
2018-12-18T14:54:41.789Z,16.37
2018-12-18T14:57:09.551Z,17.30
2018-12-18T14:59:37.175Z,18.27
2018-12-18T15:02:04.707Z,17.30
2018-12-18T15:04:32.339Z,17.27
2018-12-18T15:07:02.876Z,16.73
2018-12-18T15:09:29.441Z,16.60
2018-12-18T15:11:57.023Z,16.63
2018-12-18T15:14:24.558Z,16.10
2018-12-18T15:16:52.104Z,16.63
2018-12-18T15:19:19.633Z,17.53
2018-12-18T15:21:47.164Z,16.23
2018-12-18T15:24:14.728Z,15.07
2018-12-18T15:26:42.248Z,14.83
2018-12-18T15:29:10.711Z,17.73
2018-12-18T15:31:38.274Z,16.30
2018-12-18T15:34:06.150Z,15.23
2018-12-18T15:36:33.720Z,16.43
2018-12-18T15:39:01.266Z,15.13
2018-12-18T15:41:28.808Z,14.57
2018-12-18T15:43:56.420Z,15.80
2018-12-18T15:46:23.966Z,16.30
2018-12-18T15:48:51.553Z,16.50
2018-12-18T15:51:19.091Z,17.17
2018-12-18T15:53:46.711Z,16.17
2018-12-18T15:56:14.390Z,15.97
2018-12-18T15:58:42.279Z,16.90
2018-12-18T16:03:43.692Z,15.93
2018-12-18T16:06:11.389Z,15.37
2018-12-18T16:08:38.944Z,16.53
2018-12-18T16:11:06.561Z,14.60
2018-12-18T16:13:34.126Z,14.57
2018-12-18T16:16:01.917Z,15.30
2018-12-18T16:18:29.427Z,14.23
2018-12-18T16:20:56.979Z,14.90
2018-12-18T16:23:24.502Z,14.47
2018-12-18T16:25:52.034Z,14.97
2018-12-18T16:28:19.549Z,16.07
2018-12-18T16:30:47.112Z,15.17
2018-12-18T16:33:14.632Z,15.23
2018-12-18T16:35:46.114Z,14.83
2018-12-18T16:38:13.612Z,13.03
2018-12-18T16:40:41.156Z,13.10
2018-12-18T16:43:08.708Z,14.10
2018-12-18T16:45:36.236Z,13.80
2018-12-18T16:48:03.805Z,13.77
2018-12-18T16:50:31.371Z,12.87
2018-12-18T16:52:58.894Z,13.40
2018-12-18T16:55:26.494Z,13.03
2018-12-18T16:57:54.061Z,13.20
2018-12-18T17:00:21.639Z,11.77
2018-12-18T17:02:49.229Z,12.93
2018-12-18T17:05:17.343Z,12.37
2018-12-18T17:07:45.374Z,11.75
2018-12-18T17:10:13.749Z,12.30
2018-12-18T17:12:43.248Z,12.73
2018-12-18T17:15:10.774Z,12.90
2018-12-18T17:17:38.410Z,11.77
2018-12-18T17:20:06.826Z,12.63
2018-12-18T17:22:34.352Z,12.90
2018-12-18T17:25:01.894Z,13.37
2018-12-18T17:27:29.515Z,14.23
2018-12-18T17:29:57.054Z,13.20
2018-12-18T17:32:25.398Z,12.40
2018-12-18T17:34:53.154Z,12.73
2018-12-18T17:37:22.902Z,12.17
2018-12-18T17:39:50.433Z,11.73
2018-12-18T17:42:17.958Z,11.60
2018-12-18T17:44:46.037Z,10.90
2018-12-18T17:47:13.569Z,10.67
2018-12-18T17:49:41.108Z,10.00
2018-12-18T17:52:09.059Z,10.40
2018-12-18T17:54:36.670Z,10.83
2018-12-18T17:57:04.197Z,12.03
2018-12-18T17:59:31.742Z,11.70
2018-12-18T18:01:59.378Z,11.57
2018-12-18T18:04:26.972Z,12.27
2018-12-18T18:06:54.547Z,12.10
2018-12-18T18:09:22.901Z,11.37
2018-12-18T18:11:50.434Z,11.57
2018-12-18T18:14:18.915Z,11.67
2018-12-18T18:16:46.445Z,11.93
2018-12-18T18:19:14.063Z,12.00
2018-12-18T18:21:41.671Z,11.77
2018-12-18T18:24:09.207Z,10.83
2018-12-18T18:26:37.083Z,10.47
2018-12-18T18:29:04.751Z,11.73
2018-12-18T18:31:33.860Z,11.63
2018-12-18T18:34:01.414Z,11.60
2018-12-18T18:36:28.963Z,12.13
2018-12-18T18:38:56.824Z,11.63
2018-12-18T18:41:25.793Z,11.80
2018-12-18T18:43:54.026Z,10.67
2018-12-18T18:46:21.558Z,10.43
2018-12-18T18:48:49.623Z,9.83
2018-12-18T18:51:18.033Z,10.10
2018-12-18T18:53:45.830Z,9.23
2018-12-18T18:56:14.929Z,9.53
2018-12-18T18:58:42.468Z,10.50
2018-12-18T19:01:10.161Z,10.10
2018-12-18T19:03:39.159Z,10.00
2018-12-18T19:06:06.753Z,9.50
2018-12-18T19:08:35.554Z,9.70
2018-12-18T19:11:04.867Z,9.87
2018-12-18T19:13:35.443Z,8.40
2018-12-18T19:16:03.114Z,8.87
2018-12-18T19:18:30.722Z,9.27
2018-12-18T19:20:58.248Z,8.50
2018-12-18T19:23:25.790Z,8.47
2018-12-18T19:25:54.050Z,7.83
2018-12-18T19:28:21.810Z,8.37
2018-12-18T19:30:49.365Z,7.97
2018-12-18T19:33:16.914Z,8.30
2018-12-18T19:35:46.228Z,8.13
2018-12-18T19:38:15.472Z,7.20
2018-12-18T19:40:42.992Z,7.50
2018-12-18T19:43:10.554Z,7.53
2018-12-18T19:45:38.428Z,7.80
2018-12-18T19:48:06.447Z,7.10
2018-12-18T19:50:34.823Z,7.30
2018-12-18T19:53:03.148Z,6.20
2018-12-18T19:55:30.964Z,7.53
2018-12-18T19:57:58.663Z,8.33
2018-12-18T20:00:26.244Z,7.50
2018-12-18T20:02:54.747Z,8.13
2018-12-18T20:05:22.820Z,9.15
2018-12-18T20:07:50.353Z,8.57
2018-12-18T20:10:17.935Z,8.90
2018-12-18T20:12:45.480Z,8.73
2018-12-18T20:15:16.091Z,9.40
2018-12-18T20:17:45.689Z,8.97
2018-12-18T20:20:14.089Z,9.17
2018-12-18T20:22:42.469Z,9.07
2018-12-18T20:25:10.175Z,9.30
2018-12-18T20:27:39.390Z,8.95
2018-12-18T20:30:07.128Z,8.50
2018-12-18T20:32:34.704Z,9.10
2018-12-18T20:35:02.261Z,9.60
2018-12-18T20:37:30.623Z,9.63
2018-12-18T20:39:58.191Z,9.53
2018-12-18T20:42:28.147Z,8.77
2018-12-18T20:44:55.683Z,9.17
2018-12-18T20:47:23.458Z,9.60
2018-12-18T20:49:51.019Z,9.00
2018-12-18T20:52:18.697Z,9.77
2018-12-18T20:54:46.238Z,9.53
2018-12-18T20:57:17.641Z,8.63
2018-12-18T20:59:45.218Z,9.73
2018-12-18T21:02:12.806Z,9.20
2018-12-18T21:04:40.358Z,9.20
2018-12-18T21:07:07.911Z,9.30
2018-12-18T21:09:35.469Z,8.63
2018-12-18T21:12:05.917Z,8.67
2018-12-18T21:14:33.506Z,10.23
2018-12-18T21:17:01.054Z,9.83
2018-12-18T21:19:29.373Z,9.60
2018-12-18T21:21:56.942Z,8.93
2018-12-18T21:24:24.470Z,9.97
2018-12-18T21:26:52.020Z,9.37
2018-12-18T21:29:19.540Z,9.67
2018-12-18T21:31:47.104Z,9.83
2018-12-18T21:34:14.954Z,9.13
2018-12-18T21:36:42.506Z,10.40
2018-12-18T21:39:10.039Z,10.03
2018-12-18T21:41:39.500Z,9.73
2018-12-18T21:44:07.372Z,9.90
2018-12-18T21:46:34.991Z,10.30
2018-12-18T21:49:02.523Z,10.20
2018-12-18T21:51:30.078Z,10.70
2018-12-18T21:53:59.604Z,10.47
2018-12-18T21:56:27.642Z,11.47
2018-12-18T21:58:55.183Z,10.93
2018-12-18T22:01:22.750Z,10.50
2018-12-18T22:03:50.300Z,10.83
2018-12-18T22:06:17.856Z,10.60
2018-12-18T22:08:45.940Z,11.30
2018-12-18T22:11:13.551Z,11.23
2018-12-18T22:13:41.099Z,10.70
2018-12-18T22:16:08.644Z,10.77
2018-12-18T22:18:36.328Z,11.23
2018-12-18T22:21:03.842Z,11.53
2018-12-18T22:23:31.374Z,10.60
2018-12-18T22:25:59.774Z,11.77
2018-12-18T22:28:27.305Z,12.50
2018-12-18T22:30:54.842Z,12.60
2018-12-18T22:33:22.543Z,11.67
2018-12-18T22:35:50.174Z,11.63
2018-12-18T22:38:17.744Z,12.40
2018-12-18T22:40:45.291Z,11.87
2018-12-18T22:43:12.841Z,12.20
2018-12-18T22:45:40.446Z,11.40
2018-12-18T22:48:08.003Z,11.10
2018-12-18T22:50:35.660Z,11.43
2018-12-18T22:53:03.181Z,12.00
2018-12-18T22:55:31.124Z,11.30
2018-12-18T22:57:59.436Z,11.83
2018-12-18T23:00:32.924Z,11.43
2018-12-18T23:03:01.378Z,12.30
2018-12-18T23:05:28.893Z,13.10
2018-12-18T23:07:56.389Z,13.03
2018-12-18T23:10:23.917Z,12.07
2018-12-18T23:12:51.434Z,12.23
2018-12-18T23:15:19.036Z,12.97
2018-12-18T23:17:46.532Z,13.93
2018-12-18T23:20:14.203Z,13.43
2018-12-18T23:22:41.730Z,13.43
2018-12-18T23:25:09.240Z,12.20
2018-12-18T23:27:36.791Z,12.60
2018-12-18T23:30:05.267Z,12.77
2018-12-18T23:32:32.787Z,13.10
2018-12-18T23:35:00.307Z,13.20
2018-12-18T23:37:27.796Z,13.03
2018-12-18T23:39:55.366Z,12.73
2018-12-18T23:42:23.006Z,13.40
2018-12-18T23:44:50.519Z,12.77
2018-12-18T23:47:18.047Z,11.77
2018-12-18T23:49:45.542Z,11.97
2018-12-18T23:52:13.288Z,12.63
2018-12-18T23:54:40.794Z,12.33
2018-12-18T23:57:08.332Z,12.77
2018-12-18T23:59:35.887Z,12.27
